WetterOnline ( http://www.wetteronline.de )

Wetter aktuell Lüchow

Aktuelles Wetter: Lüchow (18m)

6-stündlich | Neueste Meldungen
Ortszeit Temperatur Wetter
Do, 20.09. 14:00 26.2° C wolkig
Do, 20.09. 8:00 14.2° C leicht bewölkt
Do, 20.09. 2:00 15.8° C wolkig
Mi, 19.09. 20:00 22.8° C wolkig
Mi, 19.09. 14:00 26.0° C fast wolkenlos
Mi, 19.09. 8:00 12.4° C leicht bewölkt
Mi, 19.09. 2:00 15.8° C fast wolkenlos
Di, 18.09. 20:00 26.4° C wolkenlos
Ortszeit Temperatur Wetter
Do, 20.09. 14:30 26.1° C wolkig
Do, 20.09. 14:20 26.1° C wolkig
Do, 20.09. 14:10 26.3° C wolkig
Do, 20.09. 14:00 26.2° C wolkig
Do, 20.09. 13:50 26.2° C wolkig
Do, 20.09. 13:40 25.8° C wolkig
Do, 20.09. 13:30 25.3° C bewölkt
Do, 20.09. 13:00 25.2° C wolkig
Do, 20.09. 12:30 24.2° C bewölkt
Do, 20.09. 12:00 24.0° C leicht bewölkt
Do, 20.09. 11:30 24.0° C fast wolkenlos
Ortszeit Relative Feuchte Sichtweite
Do, 20.09. 14:00 41% 11 km
Do, 20.09. 8:00 85% 23 km
Do, 20.09. 2:00 85% 26 km
Mi, 19.09. 20:00 55% 40 km
Mi, 19.09. 14:00 44% 14 km
Mi, 19.09. 8:00 95% 8 km
Mi, 19.09. 2:00 83% 19 km
Di, 18.09. 20:00 37% 40 km
Ortszeit Relative Feuchte Sichtweite
Do, 20.09. 14:30 40% 14 km
Do, 20.09. 14:20 40% -
Do, 20.09. 14:10 39% -
Do, 20.09. 14:00 41% 11 km
Do, 20.09. 13:50 41% -
Do, 20.09. 13:40 42% -
Do, 20.09. 13:30 44% 28 km
Do, 20.09. 13:00 45% 27 km
Do, 20.09. 12:30 47% 19 km
Do, 20.09. 12:00 48% 8 km
Do, 20.09. 11:30 49% 10 km
Ortszeit Niederschlagsmenge Niederschlagsart
Do, 20.09. 14:00 0.0 l/m2 in 6 Std. -
Do, 20.09. 8:00 0.0 l/m2 in 12 Std. -
Do, 20.09. 2:00 0.0 l/m2 in 6 Std. -
Mi, 19.09. 20:00 0.0 l/m2 in 12 Std. -
Mi, 19.09. 14:00 0.0 l/m2 in 6 Std. -
Mi, 19.09. 8:00 0.0 l/m2 in 12 Std. -
Mi, 19.09. 2:00 0.0 l/m2 in 6 Std. -
Di, 18.09. 20:00 0.0 l/m2 in 12 Std. -
Ortszeit Niederschlagsmenge Niederschlagsart
Do, 20.09. 14:30 0.0 l/m2 in 1 Std. -
Do, 20.09. 14:20 keine Meldung -
Do, 20.09. 14:10 keine Meldung -
Do, 20.09. 14:00 0.0 l/m2 in 1 Std. -
Do, 20.09. 13:50 keine Meldung -
Do, 20.09. 13:40 keine Meldung -
Do, 20.09. 13:30 0.0 l/m2 in 1 Std. -
Do, 20.09. 13:00 0.0 l/m2 in 1 Std. -
Do, 20.09. 12:30 0.0 l/m2 in 1 Std. -
Do, 20.09. 12:00 0.0 l/m2 in 1 Std. -
Do, 20.09. 11:30 0.0 l/m2 in 1 Std. -
Ortszeit Stärke Spitze Richtung
km/h Bft. km/h Grad Sektor
Do, 20.09. 14:00 22 4 43 210° SW
Do, 20.09. 8:00 4 1 11 200° S
Do, 20.09. 2:00 2 1 11 170° S
Mi, 19.09. 20:00 4 1 40 190° S
Mi, 19.09. 14:00 20 4 31 230° SW
Mi, 19.09. 8:00 7 2 11 210° SW
Mi, 19.09. 2:00 4 1 25 180° S
Di, 18.09. 20:00 7 2 36 170° S
Ortszeit Stärke Spitze Richtung
km/h Bft. km/h Grad Sektor
Do, 20.09. 14:30 22 4 36 220° SW
Do, 20.09. 14:20 22 4 - 220° SW
Do, 20.09. 14:10 22 4 - 230° SW
Do, 20.09. 14:00 22 4 43 210° SW
Do, 20.09. 13:50 22 4 - 210° SW
Do, 20.09. 13:40 24 4 - 200° S
Do, 20.09. 13:30 20 4 31 220° SW
Do, 20.09. 13:00 22 4 40 220° SW
Do, 20.09. 12:30 22 4 36 230° SW
Do, 20.09. 12:00 25 4 36 220° SW
Do, 20.09. 11:30 18 3 32 220° SW
Ortszeit Untergrenze Bedeckung Gattung
total tief tief mittel hoch
Do, 20.09. 14:00 1500 m 5/8 4/8 - - -
Do, 20.09. 8:00 10500 m 5/8 0/8 - - -
Do, 20.09. 2:00 1800 m 7/8 4/8 - - -
Mi, 19.09. 20:00 10500 m 8/8 0/8 - - -
Mi, 19.09. 14:00 10500 m 2/8 0/8 - - -
Mi, 19.09. 8:00 3000 m 2/8 - - - -
Mi, 19.09. 2:00 4500 m 1/8 1/8 - - -
Di, 18.09. 20:00 - 0/8 0/8 - - -
Ortszeit Bedeckungsgrad in Achtel und Wolkenuntergrenze
Do, 20.09. 14:30 3(1800m) 7(9000m) 7(10500m)
Do, 20.09. 14:20 3(1800m) 7(9000m) 7(10500m)
Do, 20.09. 14:10 4(1500m) 6(9000m) 7(10500m)
Do, 20.09. 14:00 4(1500m) 5(10500m) 6(10500m)
Do, 20.09. 13:50 4(1500m) 5(10500m)
Do, 20.09. 13:40 2(1500m) 4(1800m) 5(10500m)
Do, 20.09. 13:30 4(1800m) 5(10500m) 9
Do, 20.09. 13:00 6(1500m) 7(10500m)
Do, 20.09. 12:30 3(1500m) 7(1800m)
Do, 20.09. 12:00 3(1500m) 4(9000m)
Do, 20.09. 11:30 1(9000m) 3(9000m) 3(10500m)
Ortszeit Luftdruck NN (hPa) Tendenz (hPa in 3 Std.)
Do, 20.09. 14:00 1016 - 1,6
Do, 20.09. 8:00 1018 + 0,7
Do, 20.09. 2:00 1017 + 1,2
Mi, 19.09. 20:00 1015 + 0,2
Mi, 19.09. 14:00 1017 - 1,1
Mi, 19.09. 8:00 1017 + 1,0
Mi, 19.09. 2:00 1016 + 2,6
Di, 18.09. 20:00 1011 + 0,2
Ortszeit Luftdruck NN (hPa) Tendenz (hPa in 3 Std.)
Do, 20.09. 14:30 1015 - 1,7
Do, 20.09. 14:20 1015 keine Meldung
Do, 20.09. 14:10 1016 keine Meldung
Do, 20.09. 14:00 1016 - 1,6
Do, 20.09. 13:50 1016 keine Meldung
Do, 20.09. 13:40 1016 keine Meldung
Do, 20.09. 13:30 1016 - 1,4
Do, 20.09. 13:00 1016 - 1,3
Do, 20.09. 12:30 1017 - 1,0
Do, 20.09. 12:00 1017 - 0,7
Do, 20.09. 11:30 1017 - 0,5
Ortszeit Schneehöhe (cm)
Do, 20.09. 14:00 -
Do, 20.09. 8:00 -
Do, 20.09. 2:00 -
Mi, 19.09. 20:00 -
Mi, 19.09. 14:00 -
Mi, 19.09. 8:00 -
Mi, 19.09. 2:00 -
Di, 18.09. 20:00 -
Ortszeit Schneehöhe (cm)
Do, 20.09. 14:30 -
Do, 20.09. 14:20 -
Do, 20.09. 14:10 -
Do, 20.09. 14:00 -
Do, 20.09. 13:50 -
Do, 20.09. 13:40 -
Do, 20.09. 13:30 -
Do, 20.09. 13:00 -
Do, 20.09. 12:30 -
Do, 20.09. 12:00 -
Do, 20.09. 11:30 -
Link zu dieser Seite / Seite empfehlen

Das Wetter in ...